Time;durP1;ratioP1;P1;durP2;ratioP2;P2;SDS_P1;SDS_P2;PMS_P1;PMS_P2;Temp;Humidity;BMP_temperature;BMP_pressure;BME280_temperature;BME280_humidity;BME280_pressure;Samples;Min_cycle;Max_cycle;Signal;HPM_P1;HPM_P2
2021/08/12 00:00:16;;;;;;;10.50;4.50;;;;;;;16.79;63.87;100266.19;10451996;28;20052;-62
2021/08/12 00:05:18;;;;;;;11.57;4.78;;;;;;;16.73;63.77;100266.69;10456224;28;20453;-62
2021/08/12 00:10:20;;;;;;;11.18;4.75;;;;;;;16.64;64.06;100267.44;10463846;28;20044;-64
2021/08/12 00:15:22;;;;;;;8.07;4.88;;;;;;;16.67;64.09;100271.63;10471982;28;20454;-62
2021/08/12 00:20:23;;;;;;;8.23;4.22;;;;;;;16.63;64.37;100275.47;10467161;28;20470;-61
2021/08/12 00:25:25;;;;;;;10.27;4.07;;;;;;;16.71;63.72;100267.78;10449996;28;20365;-62
2021/08/12 00:30:27;;;;;;;10.23;4.90;;;;;;;16.69;63.79;100272.34;10449528;28;20409;-62
2021/08/12 00:35:29;;;;;;;12.82;4.20;;;;;;;16.63;63.97;100270.19;10461534;28;20045;-62
2021/08/12 00:40:31;;;;;;;7.60;4.45;;;;;;;16.57;63.93;100268.88;10454546;28;20405;-61
2021/08/12 00:45:32;;;;;;;14.40;4.10;;;;;;;16.53;63.97;100270.06;10457443;28;20119;-62
2021/08/12 00:50:39;;;;;;;7.97;4.72;;;;;;;16.53;63.87;100277.16;10476444;28;20443;-62
2021/08/12 00:55:45;;;;;;;10.40;4.63;;;;;;;16.50;63.93;100277.41;10482929;28;20132;-61
2021/08/12 01:00:51;;;;;;;10.85;4.47;;;;;;;16.45;63.93;100274.25;10478411;28;20141;-64
2021/08/12 01:05:57;;;;;;;11.82;5.15;;;;;;;16.42;63.80;100269.22;10473596;28;20501;-62
2021/08/12 01:11:35;;;;;;;10.23;4.45;;;;;;;16.29;64.25;100279.03;10458076;28;20427;-61
2021/08/12 01:16:45;;;;;;;6.80;4.40;;;;;;;16.32;64.05;100277.03;10439039;28;20689;-65
2021/08/12 01:21:57;;;;;;;9.60;4.55;;;;;;;16.26;64.22;100274.00;10449160;28;20678;-62
2021/08/12 01:27:04;;;;;;;9.27;4.60;;;;;;;16.20;64.19;100276.16;10452394;28;20127;-63
2021/08/12 01:32:18;;;;;;;10.77;4.40;;;;;;;16.14;64.17;100279.25;10467878;28;20080;-62
2021/08/12 01:37:23;;;;;;;11.45;4.90;;;;;;;16.14;63.83;100281.91;10428992;28;20068;-64
2021/08/12 01:42:26;;;;;;;8.15;4.40;;;;;;;16.12;63.80;100283.00;10472801;28;20106;-63
2021/08/12 01:47:29;;;;;;;7.80;4.40;;;;;;;16.08;64.10;100279.75;10459446;28;20119;-64
2021/08/12 01:52:34;;;;;;;8.57;4.60;;;;;;;16.01;64.26;100273.28;10451906;28;20048;-63
2021/08/12 01:57:39;;;;;;;12.20;4.70;;;;;;;15.48;65.10;100273.81;10480052;28;20053;-64
2021/08/12 02:02:45;;;;;;;7.40;4.30;;;;;;;15.56;65.30;100276.75;10490001;28;20493;-64
2021/08/12 02:07:47;;;;;;;11.68;5.85;;;;;;;15.67;64.90;100274.16;10469923;28;20326;-63
2021/08/12 02:12:49;;;;;;;10.63;4.68;;;;;;;15.59;64.82;100276.50;10446972;28;20053;-63
2021/08/12 02:17:51;;;;;;;8.50;4.90;;;;;;;15.51;64.75;100268.31;10481967;28;20084;-63
2021/08/12 02:23:02;;;;;;;10.52;4.90;;;;;;;15.49;64.90;100259.69;10481884;28;20128;-63
2021/08/12 02:28:08;;;;;;;19.10;5.05;;;;;;;15.53;65.20;100258.50;10460154;28;20087;-64
2021/08/12 02:33:13;;;;;;;93.93;8.15;;;;;;;15.46;64.63;100259.91;10467954;28;20080;-63
2021/08/12 02:38:17;;;;;;;14.30;5.53;;;;;;;15.17;65.45;100258.56;10447303;28;20057;-64
2021/08/12 02:43:21;;;;;;;9.93;4.78;;;;;;;15.22;65.84;100262.56;10453027;28;20482;-63
2021/08/12 02:48:26;;;;;;;8.50;4.72;;;;;;;15.30;65.71;100254.94;10453655;28;20513;-63
2021/08/12 02:53:30;;;;;;;15.32;5.55;;;;;;;15.32;65.39;100252.19;10475664;28;20049;-63
2021/08/12 02:58:37;;;;;;;16.23;5.68;;;;;;;15.28;65.39;100253.38;10452174;28;20056;-63
2021/08/12 03:03:42;;;;;;;13.30;5.22;;;;;;;15.31;65.29;100250.50;10464244;28;20045;-63
2021/08/12 03:08:46;;;;;;;17.52;4.82;;;;;;;15.26;65.48;100252.63;10477795;28;20437;-63
2021/08/12 03:13:49;;;;;;;20.13;5.75;;;;;;;15.24;65.32;100258.03;10474527;28;20106;-62
2021/08/12 03:18:51;;;;;;;18.02;5.53;;;;;;;15.15;65.04;100255.22;10473041;28;20049;-62
2021/08/12 03:23:56;;;;;;;106.13;7.93;;;;;;;15.06;65.21;100253.25;10459137;28;20128;-62
2021/08/12 03:28:58;;;;;;;65.47;5.93;;;;;;;14.96;65.65;100260.16;10456735;28;20048;-62
2021/08/12 03:34:00;;;;;;;47.25;6.30;;;;;;;14.91;65.31;100257.84;10452606;28;20163;-62
2021/08/12 03:39:02;;;;;;;11.75;4.30;;;;;;;14.75;65.69;100252.00;10459179;28;20120;-62
2021/08/12 03:44:04;;;;;;;13.27;4.63;;;;;;;14.84;65.76;100255.78;10470591;28;20120;-62
2021/08/12 03:49:06;;;;;;;7.93;4.55;;;;;;;14.91;65.59;100254.38;10451079;28;20131;-62
2021/08/12 03:54:08;;;;;;;15.52;6.32;;;;;;;14.87;65.47;100251.13;10449498;28;20094;-62
2021/08/12 03:59:09;;;;;;;7.13;4.30;;;;;;;14.90;65.24;100255.34;10445228;28;20152;-63
2021/08/12 04:04:11;;;;;;;42.78;4.93;;;;;;;14.90;65.12;100252.69;10448457;28;20695;-62
2021/08/12 04:09:13;;;;;;;40.42;5.53;;;;;;;14.94;65.27;100257.63;10469764;28;20072;-62
2021/08/12 04:14:17;;;;;;;34.65;4.38;;;;;;;15.00;65.52;100264.25;10436452;28;21002;-63
2021/08/12 04:19:19;;;;;;;45.53;5.20;;;;;;;14.98;65.17;100271.41;10438956;28;20409;-62
2021/08/12 04:24:21;;;;;;;108.40;6.43;;;;;;;14.93;65.49;100277.00;10449249;28;20049;-62
2021/08/12 04:29:23;;;;;;;21.83;4.50;;;;;;;14.95;65.49;100282.16;10474540;28;20122;-62
2021/08/12 04:34:25;;;;;;;17.23;4.50;;;;;;;15.12;65.12;100285.25;10472747;28;20044;-62
2021/08/12 04:39:29;;;;;;;25.27;4.50;;;;;;;15.35;64.64;100278.28;10451017;28;20044;-62
2021/08/12 04:44:31;;;;;;;12.45;4.82;;;;;;;15.41;64.27;100285.75;10447992;28;20131;-62
2021/08/12 04:49:32;;;;;;;70.53;6.20;;;;;;;15.36;64.15;100280.00;10451658;28;20213;-62
2021/08/12 04:54:34;;;;;;;6.72;4.40;;;;;;;15.55;64.33;100275.03;10446309;28;20493;-62
2021/08/12 04:59:36;;;;;;;5.95;4.13;;;;;;;15.91;63.76;100290.75;10472797;28;20094;-62
2021/08/12 05:04:38;;;;;;;12.10;4.60;;;;;;;16.17;63.35;100288.75;10468066;28;20097;-62
2021/08/12 05:09:39;;;;;;;11.30;4.32;;;;;;;16.47;62.20;100282.94;10461513;28;20457;-63
2021/08/12 05:14:41;;;;;;;8.52;4.00;;;;;;;16.78;61.31;100275.09;10467117;28;20465;-63
2021/08/12 05:19:44;;;;;;;6.93;3.85;;;;;;;16.55;61.75;100285.81;10422016;28;20378;-62
2021/08/12 05:24:45;;;;;;;7.85;4.07;;;;;;;16.30;62.64;100286.84;10430048;28;20132;-63
2021/08/12 05:29:47;;;;;;;5.82;3.80;;;;;;;16.44;62.22;100299.00;10450313;28;20493;-63
2021/08/12 05:34:49;;;;;;;7.22;3.78;;;;;;;16.70;62.28;100303.91;10421188;28;20072;-62
2021/08/12 05:39:50;;;;;;;9.45;4.07;;;;;;;17.10;61.15;100306.03;10447350;28;20053;-64
2021/08/12 05:44:52;;;;;;;9.43;4.00;;;;;;;17.42;60.38;100291.06;10438560;28;20112;-63
2021/08/12 05:49:54;;;;;;;8.75;4.35;;;;;;;17.43;60.28;100290.91;10426715;28;20080;-63
2021/08/12 05:54:56;;;;;;;15.27;5.43;;;;;;;17.48;60.00;100291.38;10414276;28;20128;-63
2021/08/12 05:59:59;;;;;;;8.63;5.03;;;;;;;17.81;59.75;100293.03;10431739;28;20266;-63
2021/08/12 06:05:01;;;;;;;11.20;5.70;;;;;;;18.09;59.06;100294.19;10430307;28;20049;-63
2021/08/12 06:10:04;;;;;;;10.85;5.45;;;;;;;18.12;58.96;100301.84;10432579;28;20350;-63
2021/08/12 06:15:06;;;;;;;8.43;4.65;;;;;;;18.34;58.68;100294.63;10414144;28;20136;-63
2021/08/12 06:20:09;;;;;;;9.55;4.60;;;;;;;18.58;58.41;100299.63;10429401;28;20496;-61
2021/08/12 06:25:12;;;;;;;10.38;5.15;;;;;;;18.81;57.67;100300.25;10433452;28;20448;-63
2021/08/12 06:30:14;;;;;;;8.38;4.82;;;;;;;19.04;57.17;100288.47;10411281;28;20080;-63
2021/08/12 06:35:15;;;;;;;10.40;5.50;;;;;;;19.01;57.21;100284.25;10446055;28;20588;-63
2021/08/12 06:40:21;;;;;;;9.68;4.72;;;;;;;18.97;57.34;100282.84;10441981;28;20513;-61
2021/08/12 06:45:24;;;;;;;9.30;4.70;;;;;;;19.53;56.67;100271.63;10446288;28;20133;-63
2021/08/12 06:50:26;;;;;;;10.40;5.38;;;;;;;19.68;56.38;100278.19;10425449;28;20045;-63
2021/08/12 06:55:30;;;;;;;8.70;5.38;;;;;;;19.85;56.05;100272.16;10434988;28;20149;-61
2021/08/12 07:00:34;;;;;;;7.68;4.47;;;;;;;20.08;55.98;100268.22;10427368;28;20055;-62
2021/08/12 07:05:36;;;;;;;8.25;5.10;;;;;;;19.89;55.85;100269.09;10431270;28;20148;-62
2021/08/12 07:10:38;;;;;;;7.65;4.90;;;;;;;19.67;56.62;100271.19;10434017;28;20053;-62
2021/08/12 07:15:40;;;;;;;14.82;5.57;;;;;;;19.73;56.70;100281.22;10429312;28;20612;-62
2021/08/12 07:20:42;;;;;;;11.73;5.30;;;;;;;19.86;56.24;100280.00;10414025;28;20048;-62
2021/08/12 07:25:44;;;;;;;11.55;5.15;;;;;;;19.67;56.52;100293.25;10444423;28;20095;-62
2021/08/12 07:30:45;;;;;;;9.43;5.30;;;;;;;19.49;57.19;100284.34;10429893;28;20080;-62
2021/08/12 07:35:47;;;;;;;13.05;5.78;;;;;;;19.95;56.40;100291.59;10433093;28;20120;-62
2021/08/12 07:40:49;;;;;;;13.60;5.90;;;;;;;20.54;55.10;100280.66;10409777;28;20494;-62
2021/08/12 07:45:51;;;;;;;9.90;5.63;;;;;;;21.79;52.57;100271.69;10432089;28;20313;-62
2021/08/12 07:50:53;;;;;;;14.55;7.07;;;;;;;22.89;49.91;100285.16;10431059;28;20132;-62
2021/08/12 07:55:58;;;;;;;9.98;5.68;;;;;;;22.91;49.63;100281.34;10431127;28;20504;-63
2021/08/12 08:01:01;;;;;;;9.55;5.38;;;;;;;23.49;48.17;100282.16;10452670;28;20169;-62
2021/08/12 08:06:03;;;;;;;8.30;5.18;;;;;;;23.49;47.76;100266.13;10441500;28;20072;-62
2021/08/12 08:11:05;;;;;;;8.95;5.63;;;;;;;23.43;48.12;100264.13;10467433;28;20045;-63
2021/08/12 08:16:07;;;;;;;6.78;5.10;;;;;;;23.14;47.70;100262.91;10445401;28;20486;-63
2021/08/12 08:21:09;;;;;;;11.02;5.38;;;;;;;23.32;47.85;100260.94;10467550;28;20052;-62
2021/08/12 08:26:10;;;;;;;12.65;5.25;;;;;;;24.05;46.92;100261.75;10428888;28;20136;-61
2021/08/12 08:31:12;;;;;;;9.10;5.43;;;;;;;24.41;45.32;100249.66;10451046;28;20324;-61
2021/08/12 08:36:14;;;;;;;10.00;5.28;;;;;;;24.00;45.74;100245.44;10436065;28;20531;-61
2021/08/12 08:41:16;;;;;;;8.77;5.18;;;;;;;23.94;45.88;100259.47;10450562;28;20485;-61
2021/08/12 08:46:19;;;;;;;10.20;5.60;;;;;;;23.63;47.20;100259.31;10449264;28;20049;-62
2021/08/12 08:51:22;;;;;;;10.27;5.22;;;;;;;23.50;47.40;100258.97;10450929;28;20045;-61
2021/08/12 08:56:24;;;;;;;9.60;5.80;;;;;;;23.06;48.17;100262.88;10435316;28;20072;-61
2021/08/12 09:01:26;;;;;;;8.48;5.80;;;;;;;22.91;48.73;100264.50;10445223;28;20077;-61
2021/08/12 09:06:28;;;;;;;7.60;5.20;;;;;;;23.18;48.53;100259.75;10436132;28;20053;-61
2021/08/12 09:11:30;;;;;;;10.15;5.63;;;;;;;23.78;46.70;100248.78;10441440;28;20048;-61
2021/08/12 09:16:37;;;;;;;8.50;4.75;;;;;;;24.74;45.56;100247.72;10442317;28;20107;-61
2021/08/12 09:21:39;;;;;;;7.45;4.70;;;;;;;25.26;43.73;100238.06;10424366;28;20423;-59
2021/08/12 09:26:42;;;;;;;9.00;4.90;;;;;;;25.57;43.00;100244.19;10438741;28;20056;-61
2021/08/12 09:31:56;;;;;;;11.48;5.57;;;;;;;25.67;42.83;100239.41;10437220;28;20075;-61
2021/08/12 09:37:05;;;;;;;8.27;5.20;;;;;;;25.99;42.61;100235.63;10428943;28;20128;-61
2021/08/12 09:42:09;;;;;;;8.52;5.78;;;;;;;25.42;43.48;100229.91;10441785;28;20103;-61
2021/08/12 09:47:25;;;;;;;8.50;4.93;;;;;;;25.25;42.71;100225.66;10436574;28;20118;-61
2021/08/12 09:52:32;;;;;;;8.30;4.30;;;;;;;25.50;41.25;100224.50;10423651;28;20045;-61
2021/08/12 09:57:41;;;;;;;6.97;4.07;;;;;;;25.58;41.70;100221.75;10424580;28;20135;-60
2021/08/12 10:02:43;;;;;;;8.43;4.20;;;;;;;25.75;41.20;100228.59;10437702;28;20081;-61
2021/08/12 10:07:49;;;;;;;6.68;3.75;;;;;;;25.85;40.38;100229.16;10442310;28;20540;-60
2021/08/12 10:12:59;;;;;;;7.40;4.00;;;;;;;26.37;40.38;100217.59;10428893;28;20469;-60
2021/08/12 10:18:03;;;;;;;12.07;3.80;;;;;;;26.99;37.52;100226.84;10415513;28;20480;-62
2021/08/12 10:23:06;;;;;;;6.65;3.70;;;;;;;27.36;36.35;100217.75;10417084;28;20453;-61
2021/08/12 10:28:11;;;;;;;6.40;3.55;;;;;;;27.04;38.75;100219.03;10440462;28;20049;-61
2021/08/12 10:33:14;;;;;;;9.40;3.22;;;;;;;26.97;37.38;100212.78;10420820;28;20128;-61
2021/08/12 10:38:16;;;;;;;7.50;3.95;;;;;;;27.45;36.67;100211.22;10428883;28;20155;-62
2021/08/12 10:43:23;;;;;;;6.35;3.70;;;;;;;27.49;36.63;100209.78;10427602;28;20307;-62
2021/08/12 10:48:28;;;;;;;5.55;3.40;;;;;;;27.16;37.00;100211.34;10428370;28;20058;-61
2021/08/12 10:53:30;;;;;;;5.40;3.58;;;;;;;27.74;36.68;100203.00;10436153;28;20508;-61
2021/08/12 10:58:43;;;;;;;5.35;3.58;;;;;;;28.07;35.13;100203.22;10432301;28;20045;-62
2021/08/12 11:03:47;;;;;;;7.68;3.50;;;;;;;28.10;37.82;100203.66;10435210;28;20063;-62
2021/08/12 11:08:52;;;;;;;7.50;3.60;;;;;;;28.32;36.14;100201.72;10419086;28;20049;-60
2021/08/12 11:13:56;;;;;;;6.30;3.50;;;;;;;28.29;35.67;100186.00;10424472;28;20474;-62
2021/08/12 11:18:59;;;;;;;9.23;3.58;;;;;;;28.13;35.70;100180.94;10441858;28;20485;-62
2021/08/12 11:24:22;;;;;;;5.97;3.67;;;;;;;28.18;35.08;100181.16;10410876;28;20049;-61
2021/08/12 11:29:30;;;;;;;7.95;3.45;;;;;;;28.15;35.49;100173.50;10423754;28;20057;-61
2021/08/12 11:34:37;;;;;;;6.57;3.80;;;;;;;27.90;37.07;100172.31;10449233;28;20496;-60
2021/08/12 11:39:56;;;;;;;8.32;3.55;;;;;;;27.86;36.85;100174.56;10433414;28;20143;-61
2021/08/12 11:45:03;;;;;;;9.07;3.83;;;;;;;28.00;36.40;100170.09;10446609;28;20053;-60
2021/08/12 11:50:07;;;;;;;6.78;3.60;;;;;;;28.42;34.56;100175.28;10448771;28;20134;-61
2021/08/12 11:55:14;;;;;;;6.40;3.88;;;;;;;28.99;33.53;100172.19;10434732;28;20462;-61
2021/08/12 12:00:18;;;;;;;10.48;3.75;;;;;;;29.02;34.16;100161.00;10436849;28;20076;-61
2021/08/12 12:05:25;;;;;;;7.28;3.63;;;;;;;28.89;33.46;100163.66;10430978;28;20072;-64
2021/08/12 12:10:44;;;;;;;6.47;3.50;;;;;;;28.82;34.06;100168.19;10445448;28;20056;-61
2021/08/12 12:15:53;;;;;;;6.90;3.53;;;;;;;28.58;33.79;100164.19;10443560;28;20092;-61
2021/08/12 12:21:10;;;;;;;6.50;4.20;;;;;;;28.12;34.26;100168.50;10447331;28;20056;-62
2021/08/12 12:26:24;;;;;;;6.03;3.90;;;;;;;28.45;35.71;100177.59;10420812;28;20383;-61
2021/08/12 12:31:25;;;;;;;5.78;3.55;;;;;;;28.69;34.23;100174.34;10430488;28;20547;-61
2021/08/12 12:36:32;;;;;;;8.07;3.83;;;;;;;28.95;34.10;100170.94;10439315;28;20038;-61
2021/08/12 12:41:35;;;;;;;5.97;3.30;;;;;;;28.87;34.29;100163.88;10440010;28;20143;-62
2021/08/12 12:46:36;;;;;;;6.88;3.58;;;;;;;28.99;34.54;100173.00;10437828;28;20046;-61
2021/08/12 12:51:38;;;;;;;6.40;3.58;;;;;;;28.83;35.12;100173.34;10439733;28;20122;-61
2021/08/12 12:56:43;;;;;;;8.50;3.65;;;;;;;29.00;34.72;100163.91;10438207;28;20033;-61
2021/08/12 13:01:55;;;;;;;5.88;3.97;;;;;;;29.09;33.32;100178.00;10446513;28;20557;-61
2021/08/12 13:06:57;;;;;;;6.40;3.85;;;;;;;28.86;33.88;100170.31;10443395;28;20057;-61
2021/08/12 13:11:59;;;;;;;7.43;3.97;;;;;;;29.02;34.51;100156.44;10446506;28;20385;-61
2021/08/12 13:17:01;;;;;;;6.75;3.63;;;;;;;29.00;34.72;100158.53;10439610;28;20597;-61
2021/08/12 13:22:18;;;;;;;8.85;3.95;;;;;;;28.84;35.00;100160.72;10416719;28;20045;-63
2021/08/12 13:27:20;;;;;;;8.13;4.22;;;;;;;28.54;34.99;100156.72;10425192;28;20140;-61
2021/08/12 13:32:32;;;;;;;8.85;4.00;;;;;;;28.30;36.70;100166.13;10444604;28;20076;-60
2021/08/12 13:37:34;;;;;;;6.90;4.00;;;;;;;28.58;35.51;100161.50;10431799;28;20413;-60
2021/08/12 13:42:36;;;;;;;5.78;3.90;;;;;;;28.70;35.67;100153.66;10443427;28;20045;-61
2021/08/12 13:47:38;;;;;;;7.20;3.90;;;;;;;28.45;35.47;100158.75;10442659;28;20056;-61
2021/08/12 13:52:39;;;;;;;8.60;4.15;;;;;;;28.30;36.18;100154.56;10436914;28;20065;-61
2021/08/12 13:57:41;;;;;;;8.45;4.00;;;;;;;28.30;36.16;100150.00;10431739;28;20473;-62
2021/08/12 14:02:43;;;;;;;7.85;4.15;;;;;;;28.57;36.81;100146.38;10444023;28;20063;-61
2021/08/12 14:07:45;;;;;;;7.10;4.10;;;;;;;28.35;35.69;100134.09;10447732;28;20809;-62
2021/08/12 14:12:47;;;;;;;6.70;4.07;;;;;;;28.58;35.75;100129.22;10442456;28;20080;-61
2021/08/12 14:17:49;;;;;;;9.82;4.45;;;;;;;28.66;36.64;100125.50;10442400;28;20041;-62
2021/08/12 14:22:51;;;;;;;12.23;4.50;;;;;;;28.77;35.38;100124.88;10441485;28;20057;-61
2021/08/12 14:27:53;;;;;;;8.20;4.53;;;;;;;28.63;36.69;100124.03;10415580;28;20054;-61
2021/08/12 14:32:55;;;;;;;9.40;4.35;;;;;;;28.58;35.42;100113.06;10438237;28;20572;-61
2021/08/12 14:37:57;;;;;;;6.60;4.32;;;;;;;28.92;35.42;100101.34;10441804;28;20131;-61
2021/08/12 14:42:58;;;;;;;8.13;4.18;;;;;;;28.85;34.96;100090.56;10440415;28;20053;-61
2021/08/12 14:48:00;;;;;;;6.25;4.32;;;;;;;29.09;36.07;100092.63;10434967;28;20128;-62
2021/08/12 14:53:02;;;;;;;9.25;4.40;;;;;;;28.85;36.49;100079.78;10414504;28;20458;-61
2021/08/12 14:58:04;;;;;;;7.00;4.53;;;;;;;28.69;35.89;100090.09;10440346;28;20136;-62
2021/08/12 15:03:07;;;;;;;10.93;4.93;;;;;;;28.56;35.51;100090.06;10429895;28;20145;-61
2021/08/12 15:08:09;;;;;;;11.65;4.82;;;;;;;28.52;34.68;100081.59;10439642;28;20171;-62
2021/08/12 15:13:11;;;;;;;9.93;4.47;;;;;;;28.60;35.56;100080.56;10434170;28;20503;-62
2021/08/12 15:18:13;;;;;;;9.00;4.60;;;;;;;28.45;35.39;100082.59;10421557;28;20048;-62
2021/08/12 15:23:15;;;;;;;6.47;4.40;;;;;;;28.57;35.82;100070.19;10439153;28;20139;-62
2021/08/12 15:28:17;;;;;;;10.35;4.80;;;;;;;28.59;35.94;100068.97;10427654;28;20073;-62
2021/08/12 15:33:18;;;;;;;8.73;4.80;;;;;;;28.45;35.66;100063.75;10420821;28;20072;-62
2021/08/12 15:38:20;;;;;;;9.95;5.22;;;;;;;28.54;35.54;100054.47;10433964;28;20135;-63
2021/08/12 15:43:22;;;;;;;9.57;4.30;;;;;;;28.53;35.74;100058.19;10431118;28;20115;-62
2021/08/12 15:48:24;;;;;;;10.23;4.47;;;;;;;28.86;35.11;100054.53;10415872;28;20065;-62
2021/08/12 15:53:26;;;;;;;8.98;4.78;;;;;;;28.84;34.96;100048.53;10435184;28;20140;-62
2021/08/12 15:58:27;;;;;;;10.90;5.40;;;;;;;28.72;35.63;100042.06;10416939;28;20048;-62
2021/08/12 16:03:29;;;;;;;9.13;5.00;;;;;;;28.57;34.73;100043.28;10424025;28;20139;-62
2021/08/12 16:08:31;;;;;;;13.20;5.68;;;;;;;28.36;35.26;100046.16;10433170;28;20059;-62
2021/08/12 16:13:37;;;;;;;8.52;4.63;;;;;;;28.27;35.29;100053.53;10421059;28;20045;-62
2021/08/12 16:18:38;;;;;;;10.55;5.82;;;;;;;28.38;34.73;100047.59;10446859;28;20080;-62
2021/08/12 16:23:52;;;;;;;12.05;5.07;;;;;;;28.47;35.90;100049.06;10439078;28;20060;-62
2021/08/12 16:28:54;;;;;;;10.15;5.25;;;;;;;28.54;35.73;100051.78;10430934;28;20121;-62
2021/08/12 16:33:55;;;;;;;8.50;5.00;;;;;;;28.52;35.68;100045.78;10441661;28;20136;-62
2021/08/12 16:38:57;;;;;;;8.95;5.15;;;;;;;28.44;35.64;100044.06;10446462;28;20442;-62
2021/08/12 16:43:59;;;;;;;10.18;5.65;;;;;;;28.51;35.85;100034.16;10442356;28;20141;-62
2021/08/12 16:49:01;;;;;;;7.78;5.57;;;;;;;28.42;35.44;100048.84;10439641;28;20129;-62
2021/08/12 16:54:03;;;;;;;12.10;5.82;;;;;;;28.38;35.46;100038.72;10420847;28;20412;-62
2021/08/12 16:59:04;;;;;;;11.60;5.72;;;;;;;28.25;36.04;100037.63;10423353;28;20132;-62
2021/08/12 17:04:06;;;;;;;14.20;5.30;;;;;;;28.14;36.09;100040.88;10428646;28;20140;-62
2021/08/12 17:09:08;;;;;;;8.93;5.38;;;;;;;27.94;35.99;100039.97;10432444;28;20382;-62
2021/08/12 17:14:09;;;;;;;10.32;5.35;;;;;;;27.90;37.31;100033.34;10446974;28;20079;-62
2021/08/12 17:19:11;;;;;;;10.75;5.70;;;;;;;27.74;38.31;100024.78;10423024;28;20557;-62
2021/08/12 17:24:13;;;;;;;9.63;5.25;;;;;;;27.60;37.27;100031.09;10445798;28;20111;-62
2021/08/12 17:29:15;;;;;;;10.10;5.70;;;;;;;27.42;37.03;100032.44;10439137;28;20099;-61
2021/08/12 17:34:16;;;;;;;9.63;5.30;;;;;;;27.26;36.90;100031.94;10413611;28;20128;-62
2021/08/12 17:39:18;;;;;;;10.73;5.45;;;;;;;27.11;37.77;100036.53;10462531;28;20131;-61
2021/08/12 17:44:20;;;;;;;7.95;5.20;;;;;;;26.99;38.64;100041.63;10451365;28;20048;-60
2021/08/12 17:49:36;;;;;;;8.98;5.53;;;;;;;26.86;38.70;100038.81;10463800;28;20507;-61
2021/08/12 17:54:38;;;;;;;10.82;5.50;;;;;;;26.75;39.02;100046.56;10450578;28;20513;-61
2021/08/12 17:59:40;;;;;;;14.20;6.05;;;;;;;26.56;39.33;100054.25;10444124;28;20041;-62
2021/08/12 18:04:42;;;;;;;10.63;5.80;;;;;;;26.44;41.12;100057.59;10445830;28;20127;-61
2021/08/12 18:09:47;;;;;;;16.05;7.47;;;;;;;26.32;42.40;100059.91;10443315;28;20558;-62
2021/08/12 18:14:49;;;;;;;11.00;5.57;;;;;;;26.08;43.47;100067.50;10436887;28;20045;-61
2021/08/12 18:19:53;;;;;;;12.48;6.53;;;;;;;25.83;44.26;100074.97;10434571;28;20049;-61
2021/08/12 18:24:56;;;;;;;9.35;5.60;;;;;;;25.56;45.31;100083.66;10429526;28;20130;-62
2021/08/12 18:29:58;;;;;;;12.77;6.25;;;;;;;25.36;46.41;100094.09;10407976;28;20186;-62
2021/08/12 18:35:02;;;;;;;11.90;6.22;;;;;;;25.17;47.36;100105.25;10443215;28;20124;-61
2021/08/12 18:40:06;;;;;;;11.75;5.95;;;;;;;24.92;47.59;100115.34;10421477;28;20048;-62
2021/08/12 18:45:09;;;;;;;10.55;5.78;;;;;;;24.71;48.69;100114.31;10436983;28;20140;-62
2021/08/12 18:50:11;;;;;;;12.02;5.88;;;;;;;24.45;49.22;100117.28;10442565;28;20072;-62
2021/08/12 18:55:13;;;;;;;11.07;6.20;;;;;;;23.88;51.11;100124.72;10442597;28;20049;-62
2021/08/12 19:00:15;;;;;;;9.52;5.68;;;;;;;23.64;51.35;100135.47;10427634;28;20528;-62
2021/08/12 19:05:17;;;;;;;11.60;6.45;;;;;;;23.56;51.74;100146.16;10433015;28;20387;-62
2021/08/12 19:10:20;;;;;;;12.55;6.22;;;;;;;23.49;52.27;100150.53;10433538;28;20120;-62
2021/08/12 19:15:22;;;;;;;15.63;7.00;;;;;;;23.31;52.83;100155.16;10434681;28;20079;-62
2021/08/12 19:20:24;;;;;;;14.10;6.50;;;;;;;23.02;53.70;100162.84;10442968;28;20651;-62
2021/08/12 19:25:26;;;;;;;16.02;7.00;;;;;;;23.10;53.64;100168.19;10431293;28;20469;-62
2021/08/12 19:30:28;;;;;;;15.90;6.35;;;;;;;23.11;53.70;100176.00;10440507;28;20136;-62
2021/08/12 19:35:30;;;;;;;10.00;6.30;;;;;;;23.10;54.03;100176.19;10414074;28;20496;-62
2021/08/12 19:40:32;;;;;;;12.73;6.10;;;;;;;23.09;54.13;100193.19;10433342;28;20053;-62
2021/08/12 19:45:35;;;;;;;14.90;6.68;;;;;;;22.94;54.45;100193.03;10445479;28;20644;-62
2021/08/12 19:50:37;;;;;;;11.60;6.85;;;;;;;22.83;54.60;100187.16;10436669;28;20557;-62
2021/08/12 19:55:39;;;;;;;9.93;6.43;;;;;;;22.76;55.23;100186.16;10447224;28;20132;-62
2021/08/12 20:00:40;;;;;;;12.95;6.75;;;;;;;22.65;55.28;100196.09;10426462;28;20072;-62
2021/08/12 20:05:44;;;;;;;14.27;6.82;;;;;;;22.61;55.40;100199.22;10441554;28;20135;-62
2021/08/12 20:10:47;;;;;;;14.13;7.00;;;;;;;22.52;55.62;100187.69;10441258;28;20383;-63
2021/08/12 20:15:48;;;;;;;10.45;6.65;;;;;;;22.46;55.91;100190.16;10434152;28;20180;-62
2021/08/12 20:20:51;;;;;;;13.05;6.93;;;;;;;22.41;55.77;100201.31;10458958;28;20055;-62
2021/08/12 20:25:52;;;;;;;11.32;6.70;;;;;;;22.21;56.36;100191.09;10425972;28;20085;-62
2021/08/12 20:30:54;;;;;;;10.57;6.75;;;;;;;22.12;56.91;100186.69;10425404;28;20041;-62
2021/08/12 20:35:56;;;;;;;11.85;6.80;;;;;;;21.92;57.55;100184.22;10455687;28;20080;-62
2021/08/12 20:40:58;;;;;;;14.68;7.05;;;;;;;21.82;57.55;100180.03;10450606;28;20041;-62
2021/08/12 20:46:00;;;;;;;11.35;7.00;;;;;;;21.77;57.88;100177.84;10430290;28;20048;-62
2021/08/12 20:51:02;;;;;;;15.55;7.07;;;;;;;21.65;58.21;100172.91;10449277;28;20041;-62
2021/08/12 20:56:06;;;;;;;10.50;6.85;;;;;;;21.51;58.52;100178.81;10448045;28;20072;-62
2021/08/12 21:01:09;;;;;;;12.00;7.15;;;;;;;21.38;58.67;100173.03;10444635;28;20128;-62
2021/08/12 21:06:11;;;;;;;14.45;7.50;;;;;;;21.28;59.17;100175.78;10447798;28;20052;-62
2021/08/12 21:11:14;;;;;;;17.25;6.72;;;;;;;21.19;59.32;100173.22;10449473;28;20045;-62
2021/08/12 21:16:16;;;;;;;14.27;7.53;;;;;;;20.99;59.81;100175.16;10446153;28;20129;-62
2021/08/12 21:21:19;;;;;;;11.70;7.40;;;;;;;20.71;60.50;100179.72;10430517;28;20048;-62
2021/08/12 21:26:21;;;;;;;10.25;7.38;;;;;;;20.48;60.88;100170.47;10462151;28;20048;-62
2021/08/12 21:31:23;;;;;;;14.95;8.18;;;;;;;20.44;61.08;100174.41;10443900;28;20049;-62
2021/08/12 21:36:25;;;;;;;11.52;7.65;;;;;;;20.49;61.10;100173.97;10447005;28;20429;-62
2021/08/12 21:41:26;;;;;;;10.63;7.43;;;;;;;20.49;61.26;100172.16;10448121;28;20136;-62
2021/08/12 21:46:28;;;;;;;15.07;7.10;;;;;;;20.48;61.04;100172.31;10443571;28;20052;-62
2021/08/12 21:51:35;;;;;;;15.73;7.80;;;;;;;20.36;61.40;100179.63;10447415;28;20506;-62
2021/08/12 21:56:37;;;;;;;9.57;7.15;;;;;;;20.26;61.67;100192.09;10433620;28;20521;-62
2021/08/12 22:01:39;;;;;;;16.23;7.77;;;;;;;20.21;61.75;100183.75;10446982;28;20049;-63
2021/08/12 22:06:41;;;;;;;13.15;7.18;;;;;;;20.17;61.72;100191.16;10439980;28;20463;-62
2021/08/12 22:11:43;;;;;;;12.98;7.32;;;;;;;20.18;61.52;100199.97;10445822;28;20057;-62
2021/08/12 22:16:45;;;;;;;12.68;7.55;;;;;;;20.09;61.77;100199.03;10446395;28;20037;-62
2021/08/12 22:21:51;;;;;;;14.02;7.80;;;;;;;19.96;62.17;100193.22;10446717;28;20657;-62
2021/08/12 22:26:53;;;;;;;16.45;7.53;;;;;;;19.89;61.98;100193.91;10420821;28;20099;-62
2021/08/12 22:31:55;;;;;;;18.60;8.95;;;;;;;19.65;62.07;100198.84;10446047;28;20405;-62
2021/08/12 22:37:01;;;;;;;13.35;8.00;;;;;;;19.34;62.86;100200.84;10444544;28;20044;-62
2021/08/12 22:42:02;;;;;;;16.45;8.18;;;;;;;19.37;62.94;100203.22;10445610;28;20132;-62
2021/08/12 22:47:04;;;;;;;13.75;7.63;;;;;;;19.47;62.97;100214.66;10444862;28;20576;-62
2021/08/12 22:52:06;;;;;;;10.50;7.40;;;;;;;19.49;62.71;100228.63;10454519;28;20087;-61
2021/08/12 22:57:09;;;;;;;11.50;7.72;;;;;;;19.46;62.72;100232.38;10458010;28;20497;-61
2021/08/12 23:02:11;;;;;;;16.42;8.20;;;;;;;19.38;62.92;100234.06;10443661;28;20386;-61